Sierra Vista Municipal Libby Army Air Field
KFHU : rendu visible

Aérodrome :











RETROUVEZ-NOUS SUR...

 
LOGIN :

S'inscrire | Disclaimer

   EN    FR    IT 

 









Légende :    VFR   VFR Marginal   IFR   IFR Intensif   IFR Très Intensif
Visi : 
Plafond : 
>= 8 km
>= 3000ft
5 à 8 km
1000 à 3000 ft
1500m à 5 km
500 à 1000 ft
800 à 1500m
200 à 500 ft
< 800m
< 200 ft
Symboles :   Orages  Brouillard  Fortes neiges  Fortes précipitations  Vent > 20 kt






- Altitude de l'aérodrome : 4719 ft
- Code IATA : FHU


KFHU - Sierra Vista Municipal Libby Army Air Field

DERNIER METAR :
  • 242359Z AUTO 27012G19KT 10SM CLR 27/M06 A2993 RMK AO2 WSHFT 45 SLP070

METARs EXPIRÉS :
  • 242345Z AUTO 31014G19KT 10SM CLR 27/M06 A2994 RMK AO2 WSHFT 42 SLP073
  • 242258Z AUTO 26009G22KT 10SM CLR 28/M06 A2995 RMK AO2 SLP072 T02761060
  • 242244Z AUTO 27016KT 10SM CLR 28/M06 A2995 RMK AO2 WSHFT 42 SLP072
  • 242204Z AUTO 24012G18KT 10SM CLR 27/M07 A2997 RMK AO2 WSHFT 2156 SLP079
  • 242152Z AUTO 28011G16KT 10SM CLR 28/M06 A2997 RMK AO2 WSHFT 49 SLP079
  • 242129Z AUTO 26016KT 10SM CLR 27/M06 A2998 RMK AO2 WSHFT 19 SLP082
  • 242058Z AUTO 25013G18KT 10SM CLR 26/M06 A2999 RMK AO2 SLP088 T02601063 57012

Prévision TAF périmée.
FIR KZAB / Amérique du Nord



MET'MAP, la Météo Aéronautique d'un coup d'oeil ! - Copyright ORBIFLY Décembre 2007 - Disclaimer

ORBIFLY MET'MAP TEAM :

Programmation & Développement : Alexandra Zaïnal
Sur une idée originale de : Baudouin d'Aumeries
Assistance à la programmation : Marc-Olivier Méhu
Soutien technique & logistique : Manuel Goepfert

Contact : metmap@orbifly.com




SOURCES & CREDITS :

   NOAA       Earth
Advisory